This is the latest recevied weather packets stored in our database for station/object NW1E. If no packets are shown the sender has not sent any weather packets the latest 10 day(s).
| Time | Temp. | Humidity | Pressure | Rain* | Wind** | Luminosity | Snow |
|---|---|---|---|---|---|---|---|
| 1777213350 | 26.67° C | 77% | 1012.8 hPa | 0 mm | - | 114 W/m² | - |
| 1777211545 | 25.56° C | 81% | 1012.8 hPa | 0 mm | - | 65 W/m² | - |
| 1777210345 | 25.56° C | 85% | 1012.6 hPa | 0 mm | - | 459 W/m² | - |
| 1777208544 | 24.44° C | 88% | 1012.6 hPa | 0 mm | - | 394 W/m² | - |
| 1777206315 | 22.78° C | 93% | 1012.5 hPa | 0 mm | - | 187 W/m² | - |
| 1777204342 | 21.11° C | 94% | 1012.2 hPa | 0 mm | - | 121 W/m² | - |
| 1777203443 | 20.56° C | 94% | 1012.1 hPa | 0 mm | - | 35 W/m² | - |
| 1777199501 | 20° C | 93% | 1011.4 hPa | 0 mm | - | 0 W/m² | - |
| 1777199200 | 20° C | 93% | 1011.3 hPa | 0 mm | - | 0 W/m² | - |
| 1777198599 | 20° C | 93% | 1011.1 hPa | 0 mm | - | 0 W/m² | - |
| 1777196794 | 20° C | 93% | 1010.8 hPa | 0 mm | - | 0 W/m² | - |
| 1777196496 | 20° C | 93% | 1010.8 hPa | 0 mm | - | 0 W/m² | - |
| 1777195228 | 20° C | 93% | 1010.8 hPa | 0 mm | - | 0 W/m² | - |
| 1777192893 | 19.44° C | 92% | 1010.6 hPa | 0 mm | - | 0 W/m² | - |
| 1777191575 | 20° C | 93% | 1010.5 hPa | 0 mm | - | 0 W/m² | - |
| 1777190792 | 20° C | 92% | 1010.6 hPa | 0 mm | - | 0 W/m² | - |
| 1777187783 | 20° C | 92% | 1010.6 hPa | 0 mm | - | 0 W/m² | - |
| 1777187185 | 20° C | 92% | 1010.6 hPa | 0 mm | - | 0 W/m² | - |
| 1777186882 | 20° C | 92% | 1010.6 hPa | 0 mm | - | 0 W/m² | - |
| 1777185976 | 20° C | 92% | 1010.7 hPa | 0 mm | - | 0 W/m² | - |
| 1777185677 | 20.56° C | 92% | 1010.7 hPa | 0 mm | - | 0 W/m² | - |
| 1777183157 | 20.56° C | 92% | 1010.9 hPa | 0 mm | - | 0 W/m² | - |
| 1777182071 | 20.56° C | 91% | 1011.1 hPa | 0 mm | - | 0 W/m² | - |
| 1777181348 | 20.56° C | 91% | 1011.2 hPa | 0 mm | - | 0 W/m² | - |
| 1777180031 | 21.11° C | 91% | 1011.2 hPa | 0 mm | - | 0 W/m² | - |
* Rain latest hour (hover to see other rain measurements)
** Current wind speed in m/s (hover to see current wind gust speed)